sensor_id;sensor_type;location;lat;lon;timestamp;P1;durP1;ratioP1;P2;durP2;ratioP2
70312;SDS011;57723;51.698;5.344;2023-01-09T00:01:46;2.80;;;0.60;;
70312;SDS011;57723;51.698;5.344;2023-01-09T00:04:01;1.17;;;0.55;;
70312;SDS011;57723;51.698;5.344;2023-01-09T00:06:26;3.87;;;0.57;;
70312;SDS011;57723;51.698;5.344;2023-01-09T00:08:51;2.38;;;0.60;;
70312;SDS011;57723;51.698;5.344;2023-01-09T00:11:17;2.80;;;0.50;;
70312;SDS011;57723;51.698;5.344;2023-01-09T00:13:42;1.90;;;0.50;;
70312;SDS011;57723;51.698;5.344;2023-01-09T00:16:07;3.87;;;0.50;;
70312;SDS011;57723;51.698;5.344;2023-01-09T00:18:33;1.73;;;0.43;;
70312;SDS011;57723;51.698;5.344;2023-01-09T00:20:59;4.27;;;0.70;;
70312;SDS011;57723;51.698;5.344;2023-01-09T00:23:24;2.13;;;0.50;;
70312;SDS011;57723;51.698;5.344;2023-01-09T00:25:50;2.53;;;0.67;;
70312;SDS011;57723;51.698;5.344;2023-01-09T00:28:24;0.40;;;0.40;;
70312;SDS011;57723;51.698;5.344;2023-01-09T00:30:54;0.97;;;0.43;;
70312;SDS011;57723;51.698;5.344;2023-01-09T00:33:20;2.53;;;0.50;;
70312;SDS011;57723;51.698;5.344;2023-01-09T00:35:47;3.33;;;0.63;;
70312;SDS011;57723;51.698;5.344;2023-01-09T00:38:12;1.23;;;0.40;;
70312;SDS011;57723;51.698;5.344;2023-01-09T00:40:37;1.80;;;0.50;;
70312;SDS011;57723;51.698;5.344;2023-01-09T00:43:03;4.10;;;0.50;;
70312;SDS011;57723;51.698;5.344;2023-01-09T00:45:28;1.10;;;0.50;;
70312;SDS011;57723;51.698;5.344;2023-01-09T00:47:54;1.73;;;0.50;;
70312;SDS011;57723;51.698;5.344;2023-01-09T00:50:22;1.20;;;0.50;;
70312;SDS011;57723;51.698;5.344;2023-01-09T00:52:47;1.23;;;0.40;;
70312;SDS011;57723;51.698;5.344;2023-01-09T00:55:13;3.28;;;0.60;;
70312;SDS011;57723;51.698;5.344;2023-01-09T00:57:39;1.13;;;0.50;;
70312;SDS011;57723;51.698;5.344;2023-01-09T01:02:46;1.90;;;0.30;;
70312;SDS011;57723;51.698;5.344;2023-01-09T01:05:11;1.17;;;0.40;;
70312;SDS011;57723;51.698;5.344;2023-01-09T01:07:55;1.08;;;0.40;;
70312;SDS011;57723;51.698;5.344;2023-01-09T01:10:24;0.50;;;0.40;;
70312;SDS011;57723;51.698;5.344;2023-01-09T01:12:49;1.88;;;0.52;;
70312;SDS011;57723;51.698;5.344;2023-01-09T01:15:15;0.55;;;0.40;;
70312;SDS011;57723;51.698;5.344;2023-01-09T01:17:40;0.73;;;0.40;;
70312;SDS011;57723;51.698;5.344;2023-01-09T01:20:07;2.50;;;0.70;;
70312;SDS011;57723;51.698;5.344;2023-01-09T01:22:33;4.18;;;0.50;;
70312;SDS011;57723;51.698;5.344;2023-01-09T01:24:58;5.20;;;0.40;;
70312;SDS011;57723;51.698;5.344;2023-01-09T01:27:23;1.80;;;0.40;;
70312;SDS011;57723;51.698;5.344;2023-01-09T01:29:48;2.07;;;0.37;;
70312;SDS011;57723;51.698;5.344;2023-01-09T01:32:16;0.32;;;0.32;;
70312;SDS011;57723;51.698;5.344;2023-01-09T01:34:41;0.50;;;0.40;;
70312;SDS011;57723;51.698;5.344;2023-01-09T01:37:06;0.50;;;0.30;;
70312;SDS011;57723;51.698;5.344;2023-01-09T01:39:31;0.30;;;0.30;;
70312;SDS011;57723;51.698;5.344;2023-01-09T01:41:56;1.13;;;0.33;;
70312;SDS011;57723;51.698;5.344;2023-01-09T01:47:06;1.23;;;0.40;;
70312;SDS011;57723;51.698;5.344;2023-01-09T01:49:31;0.43;;;0.33;;
70312;SDS011;57723;51.698;5.344;2023-01-09T01:51:56;0.30;;;0.30;;
70312;SDS011;57723;51.698;5.344;2023-01-09T01:54:22;0.60;;;0.40;;
70312;SDS011;57723;51.698;5.344;2023-01-09T01:56:49;1.15;;;0.40;;
70312;SDS011;57723;51.698;5.344;2023-01-09T01:59:26;0.73;;;0.40;;
70312;SDS011;57723;51.698;5.344;2023-01-09T02:01:53;1.33;;;0.40;;
70312;SDS011;57723;51.698;5.344;2023-01-09T02:04:19;1.25;;;0.52;;
70312;SDS011;57723;51.698;5.344;2023-01-09T02:06:46;2.20;;;0.40;;
70312;SDS011;57723;51.698;5.344;2023-01-09T02:09:12;0.77;;;0.40;;
70312;SDS011;57723;51.698;5.344;2023-01-09T02:11:43;2.88;;;0.73;;
70312;SDS011;57723;51.698;5.344;2023-01-09T02:14:08;0.75;;;0.35;;
70312;SDS011;57723;51.698;5.344;2023-01-09T02:16:50;1.73;;;0.30;;
70312;SDS011;57723;51.698;5.344;2023-01-09T02:22:01;0.90;;;0.40;;
70312;SDS011;57723;51.698;5.344;2023-01-09T02:27:18;0.55;;;0.40;;
70312;SDS011;57723;51.698;5.344;2023-01-09T02:30:01;1.40;;;0.40;;
70312;SDS011;57723;51.698;5.344;2023-01-09T02:42:48;1.20;;;0.37;;
70312;SDS011;57723;51.698;5.344;2023-01-09T02:45:13;1.10;;;0.37;;
70312;SDS011;57723;51.698;5.344;2023-01-09T02:47:40;0.50;;;0.37;;
70312;SDS011;57723;51.698;5.344;2023-01-09T02:50:06;1.85;;;0.40;;
70312;SDS011;57723;51.698;5.344;2023-01-09T03:00:42;0.90;;;0.50;;
70312;SDS011;57723;51.698;5.344;2023-01-09T03:08:07;2.03;;;0.40;;
70312;SDS011;57723;51.698;5.344;2023-01-09T03:10:56;2.97;;;0.37;;
70312;SDS011;57723;51.698;5.344;2023-01-09T03:13:23;1.10;;;0.60;;
70312;SDS011;57723;51.698;5.344;2023-01-09T03:15:48;3.75;;;0.50;;
70312;SDS011;57723;51.698;5.344;2023-01-09T03:18:16;0.65;;;0.30;;
70312;SDS011;57723;51.698;5.344;2023-01-09T03:20:43;0.35;;;0.32;;
70312;SDS011;57723;51.698;5.344;2023-01-09T03:23:09;1.83;;;0.37;;
70312;SDS011;57723;51.698;5.344;2023-01-09T03:25:34;2.40;;;0.40;;
70312;SDS011;57723;51.698;5.344;2023-01-09T03:28:00;0.82;;;0.50;;
70312;SDS011;57723;51.698;5.344;2023-01-09T03:30:26;0.47;;;0.40;;
70312;SDS011;57723;51.698;5.344;2023-01-09T03:32:52;0.95;;;0.40;;
70312;SDS011;57723;51.698;5.344;2023-01-09T03:35:17;2.47;;;0.47;;
70312;SDS011;57723;51.698;5.344;2023-01-09T03:37:42;3.60;;;0.50;;
70312;SDS011;57723;51.698;5.344;2023-01-09T03:40:07;0.30;;;0.30;;
70312;SDS011;57723;51.698;5.344;2023-01-09T03:42:33;1.93;;;0.50;;
70312;SDS011;57723;51.698;5.344;2023-01-09T03:44:58;1.60;;;0.37;;
70312;SDS011;57723;51.698;5.344;2023-01-09T03:47:23;1.13;;;0.30;;
70312;SDS011;57723;51.698;5.344;2023-01-09T03:49:48;0.47;;;0.40;;
70312;SDS011;57723;51.698;5.344;2023-01-09T03:52:13;1.87;;;0.37;;
70312;SDS011;57723;51.698;5.344;2023-01-09T03:54:41;0.98;;;0.40;;
70312;SDS011;57723;51.698;5.344;2023-01-09T03:57:06;0.80;;;0.40;;
70312;SDS011;57723;51.698;5.344;2023-01-09T03:59:34;1.02;;;0.45;;
70312;SDS011;57723;51.698;5.344;2023-01-09T04:01:59;0.30;;;0.30;;
70312;SDS011;57723;51.698;5.344;2023-01-09T04:04:24;0.37;;;0.30;;
70312;SDS011;57723;51.698;5.344;2023-01-09T04:06:49;3.20;;;0.40;;
70312;SDS011;57723;51.698;5.344;2023-01-09T04:09:14;3.03;;;0.50;;
70312;SDS011;57723;51.698;5.344;2023-01-09T04:11:39;0.97;;;0.30;;
70312;SDS011;57723;51.698;5.344;2023-01-09T04:14:05;2.80;;;0.30;;
70312;SDS011;57723;51.698;5.344;2023-01-09T04:16:30;1.67;;;0.40;;
70312;SDS011;57723;51.698;5.344;2023-01-09T04:18:55;2.17;;;0.50;;
70312;SDS011;57723;51.698;5.344;2023-01-09T04:21:20;0.90;;;0.40;;
70312;SDS011;57723;51.698;5.344;2023-01-09T04:23:45;2.40;;;0.50;;
70312;SDS011;57723;51.698;5.344;2023-01-09T04:26:11;4.93;;;0.53;;
70312;SDS011;57723;51.698;5.344;2023-01-09T04:28:36;4.13;;;0.47;;
70312;SDS011;57723;51.698;5.344;2023-01-09T04:31:01;3.10;;;0.40;;
70312;SDS011;57723;51.698;5.344;2023-01-09T04:33:27;1.73;;;0.40;;
70312;SDS011;57723;51.698;5.344;2023-01-09T04:35:52;1.50;;;0.50;;
70312;SDS011;57723;51.698;5.344;2023-01-09T04:38:17;0.50;;;0.30;;
70312;SDS011;57723;51.698;5.344;2023-01-09T04:40:45;0.57;;;0.30;;
70312;SDS011;57723;51.698;5.344;2023-01-09T04:43:10;4.90;;;0.30;;
70312;SDS011;57723;51.698;5.344;2023-01-09T04:45:36;2.20;;;0.47;;
70312;SDS011;57723;51.698;5.344;2023-01-09T04:48:01;1.17;;;0.40;;
70312;SDS011;57723;51.698;5.344;2023-01-09T04:50:26;3.27;;;0.60;;
70312;SDS011;57723;51.698;5.344;2023-01-09T04:52:51;1.13;;;0.47;;
70312;SDS011;57723;51.698;5.344;2023-01-09T04:55:16;1.73;;;0.50;;
70312;SDS011;57723;51.698;5.344;2023-01-09T04:57:42;2.40;;;0.40;;
70312;SDS011;57723;51.698;5.344;2023-01-09T05:00:07;3.83;;;0.50;;
70312;SDS011;57723;51.698;5.344;2023-01-09T05:02:34;1.40;;;0.50;;
70312;SDS011;57723;51.698;5.344;2023-01-09T05:04:59;2.60;;;0.60;;
70312;SDS011;57723;51.698;5.344;2023-01-09T05:07:25;3.40;;;0.60;;
70312;SDS011;57723;51.698;5.344;2023-01-09T05:09:50;1.53;;;0.70;;
70312;SDS011;57723;51.698;5.344;2023-01-09T05:12:15;2.17;;;0.50;;
70312;SDS011;57723;51.698;5.344;2023-01-09T05:14:40;1.23;;;0.50;;
70312;SDS011;57723;51.698;5.344;2023-01-09T05:17:05;2.33;;;0.60;;
70312;SDS011;57723;51.698;5.344;2023-01-09T05:19:31;0.77;;;0.40;;
70312;SDS011;57723;51.698;5.344;2023-01-09T05:21:56;1.43;;;0.40;;
70312;SDS011;57723;51.698;5.344;2023-01-09T05:24:21;2.30;;;0.70;;
70312;SDS011;57723;51.698;5.344;2023-01-09T05:26:46;2.03;;;0.47;;
70312;SDS011;57723;51.698;5.344;2023-01-09T05:29:11;2.63;;;0.40;;
70312;SDS011;57723;51.698;5.344;2023-01-09T05:31:37;1.27;;;0.50;;
70312;SDS011;57723;51.698;5.344;2023-01-09T05:34:02;0.90;;;0.40;;
70312;SDS011;57723;51.698;5.344;2023-01-09T05:36:27;1.73;;;0.50;;
70312;SDS011;57723;51.698;5.344;2023-01-09T05:38:53;1.50;;;0.70;;
70312;SDS011;57723;51.698;5.344;2023-01-09T05:41:18;1.83;;;0.50;;
70312;SDS011;57723;51.698;5.344;2023-01-09T05:43:43;2.17;;;0.43;;
70312;SDS011;57723;51.698;5.344;2023-01-09T05:46:08;2.23;;;0.73;;
70312;SDS011;57723;51.698;5.344;2023-01-09T05:48:34;2.23;;;0.40;;
70312;SDS011;57723;51.698;5.344;2023-01-09T05:50:59;2.23;;;0.43;;
70312;SDS011;57723;51.698;5.344;2023-01-09T05:53:24;5.43;;;0.67;;
70312;SDS011;57723;51.698;5.344;2023-01-09T05:55:49;1.83;;;0.40;;
70312;SDS011;57723;51.698;5.344;2023-01-09T05:58:15;1.00;;;0.60;;
70312;SDS011;57723;51.698;5.344;2023-01-09T06:00:41;1.88;;;0.60;;
70312;SDS011;57723;51.698;5.344;2023-01-09T06:03:06;3.17;;;0.80;;
70312;SDS011;57723;51.698;5.344;2023-01-09T06:05:31;2.20;;;0.60;;
70312;SDS011;57723;51.698;5.344;2023-01-09T06:07:56;1.87;;;0.50;;
70312;SDS011;57723;51.698;5.344;2023-01-09T06:10:24;3.25;;;0.40;;
70312;SDS011;57723;51.698;5.344;2023-01-09T06:12:49;8.07;;;0.80;;
70312;SDS011;57723;51.698;5.344;2023-01-09T06:15:15;2.60;;;0.45;;
70312;SDS011;57723;51.698;5.344;2023-01-09T06:17:41;4.63;;;0.65;;
70312;SDS011;57723;51.698;5.344;2023-01-09T06:20:08;1.48;;;0.70;;
70312;SDS011;57723;51.698;5.344;2023-01-09T06:22:33;1.17;;;0.50;;
70312;SDS011;57723;51.698;5.344;2023-01-09T06:24:58;0.93;;;0.50;;
70312;SDS011;57723;51.698;5.344;2023-01-09T06:27:24;1.27;;;0.40;;
70312;SDS011;57723;51.698;5.344;2023-01-09T06:29:49;3.10;;;0.55;;
70312;SDS011;57723;51.698;5.344;2023-01-09T06:32:14;1.07;;;0.40;;
70312;SDS011;57723;51.698;5.344;2023-01-09T06:34:40;4.60;;;0.50;;
70312;SDS011;57723;51.698;5.344;2023-01-09T06:37:05;2.70;;;0.60;;
70312;SDS011;57723;51.698;5.344;2023-01-09T06:39:30;1.20;;;0.50;;
70312;SDS011;57723;51.698;5.344;2023-01-09T06:41:58;3.50;;;0.68;;
70312;SDS011;57723;51.698;5.344;2023-01-09T06:44:23;1.55;;;0.32;;
70312;SDS011;57723;51.698;5.344;2023-01-09T06:46:48;2.00;;;0.53;;
70312;SDS011;57723;51.698;5.344;2023-01-09T06:49:13;4.63;;;0.67;;
70312;SDS011;57723;51.698;5.344;2023-01-09T06:51:39;1.75;;;0.45;;
70312;SDS011;57723;51.698;5.344;2023-01-09T06:54:04;2.70;;;0.50;;
70312;SDS011;57723;51.698;5.344;2023-01-09T06:56:29;2.87;;;0.70;;
70312;SDS011;57723;51.698;5.344;2023-01-09T06:58:54;1.30;;;0.40;;
70312;SDS011;57723;51.698;5.344;2023-01-09T07:01:19;3.40;;;0.60;;
70312;SDS011;57723;51.698;5.344;2023-01-09T07:03:45;5.00;;;0.70;;
70312;SDS011;57723;51.698;5.344;2023-01-09T07:06:10;3.97;;;0.70;;
70312;SDS011;57723;51.698;5.344;2023-01-09T07:08:35;3.63;;;0.77;;
70312;SDS011;57723;51.698;5.344;2023-01-09T07:11:00;4.30;;;0.60;;
70312;SDS011;57723;51.698;5.344;2023-01-09T07:13:26;2.70;;;0.53;;
70312;SDS011;57723;51.698;5.344;2023-01-09T07:15:51;3.73;;;0.53;;
70312;SDS011;57723;51.698;5.344;2023-01-09T07:18:17;3.10;;;0.60;;
70312;SDS011;57723;51.698;5.344;2023-01-09T07:20:42;4.38;;;0.70;;
70312;SDS011;57723;51.698;5.344;2023-01-09T07:23:11;22.25;;;20.48;;
70312;SDS011;57723;51.698;5.344;2023-01-09T07:25:36;23.50;;;20.33;;
70312;SDS011;57723;51.698;5.344;2023-01-09T07:28:02;22.00;;;19.83;;
70312;SDS011;57723;51.698;5.344;2023-01-09T07:30:27;21.10;;;19.43;;
70312;SDS011;57723;51.698;5.344;2023-01-09T07:32:52;22.27;;;20.13;;
70312;SDS011;57723;51.698;5.344;2023-01-09T07:35:17;4.70;;;1.13;;
70312;SDS011;57723;51.698;5.344;2023-01-09T07:37:43;11.87;;;0.90;;
70312;SDS011;57723;51.698;5.344;2023-01-09T07:40:08;6.80;;;0.70;;
70312;SDS011;57723;51.698;5.344;2023-01-09T07:42:33;2.85;;;0.60;;
70312;SDS011;57723;51.698;5.344;2023-01-09T07:44:58;4.87;;;0.60;;
70312;SDS011;57723;51.698;5.344;2023-01-09T07:47:24;1.43;;;0.40;;
70312;SDS011;57723;51.698;5.344;2023-01-09T07:49:49;20.97;;;19.57;;
70312;SDS011;57723;51.698;5.344;2023-01-09T07:52:14;5.70;;;1.33;;
70312;SDS011;57723;51.698;5.344;2023-01-09T07:54:39;3.17;;;0.70;;
70312;SDS011;57723;51.698;5.344;2023-01-09T07:57:04;6.97;;;0.80;;
70312;SDS011;57723;51.698;5.344;2023-01-09T07:59:30;4.27;;;0.70;;
70312;SDS011;57723;51.698;5.344;2023-01-09T08:01:55;3.83;;;0.73;;
70312;SDS011;57723;51.698;5.344;2023-01-09T08:04:20;5.23;;;0.80;;
70312;SDS011;57723;51.698;5.344;2023-01-09T08:06:45;3.17;;;0.60;;
70312;SDS011;57723;51.698;5.344;2023-01-09T08:09:11;3.10;;;0.60;;
70312;SDS011;57723;51.698;5.344;2023-01-09T08:11:37;4.05;;;0.77;;
70312;SDS011;57723;51.698;5.344;2023-01-09T08:14:02;2.17;;;0.70;;
70312;SDS011;57723;51.698;5.344;2023-01-09T08:16:28;5.73;;;0.80;;
70312;SDS011;57723;51.698;5.344;2023-01-09T08:18:53;5.43;;;0.80;;
70312;SDS011;57723;51.698;5.344;2023-01-09T08:21:18;3.80;;;0.80;;
70312;SDS011;57723;51.698;5.344;2023-01-09T08:23:43;3.67;;;0.70;;
70312;SDS011;57723;51.698;5.344;2023-01-09T08:26:09;4.20;;;0.75;;
70312;SDS011;57723;51.698;5.344;2023-01-09T08:28:34;2.27;;;0.70;;
70312;SDS011;57723;51.698;5.344;2023-01-09T08:30:59;4.13;;;0.70;;
70312;SDS011;57723;51.698;5.344;2023-01-09T08:33:25;3.23;;;0.73;;
70312;SDS011;57723;51.698;5.344;2023-01-09T08:35:50;1.48;;;0.60;;
70312;SDS011;57723;51.698;5.344;2023-01-09T08:38:15;2.40;;;0.60;;
70312;SDS011;57723;51.698;5.344;2023-01-09T08:40:41;3.43;;;0.83;;
70312;SDS011;57723;51.698;5.344;2023-01-09T08:43:08;2.33;;;0.50;;
70312;SDS011;57723;51.698;5.344;2023-01-09T08:45:52;1.20;;;0.60;;
70312;SDS011;57723;51.698;5.344;2023-01-09T08:48:36;1.92;;;0.90;;
70312;SDS011;57723;51.698;5.344;2023-01-09T08:51:01;2.73;;;0.70;;
70312;SDS011;57723;51.698;5.344;2023-01-09T08:53:26;3.40;;;0.73;;
70312;SDS011;57723;51.698;5.344;2023-01-09T08:55:52;1.43;;;0.60;;
70312;SDS011;57723;51.698;5.344;2023-01-09T08:58:17;1.23;;;0.50;;
70312;SDS011;57723;51.698;5.344;2023-01-09T09:00:42;4.40;;;0.80;;
70312;SDS011;57723;51.698;5.344;2023-01-09T09:03:08;1.30;;;0.50;;
70312;SDS011;57723;51.698;5.344;2023-01-09T09:05:33;3.95;;;0.60;;
70312;SDS011;57723;51.698;5.344;2023-01-09T09:07:58;1.13;;;0.43;;
70312;SDS011;57723;51.698;5.344;2023-01-09T09:10:25;2.00;;;0.70;;
70312;SDS011;57723;51.698;5.344;2023-01-09T09:12:51;2.28;;;0.60;;
70312;SDS011;57723;51.698;5.344;2023-01-09T09:15:16;3.40;;;0.70;;
70312;SDS011;57723;51.698;5.344;2023-01-09T09:17:48;2.17;;;0.60;;
70312;SDS011;57723;51.698;5.344;2023-01-09T09:20:14;3.08;;;0.80;;
70312;SDS011;57723;51.698;5.344;2023-01-09T09:22:39;2.70;;;0.50;;
70312;SDS011;57723;51.698;5.344;2023-01-09T09:25:04;3.00;;;0.57;;
70312;SDS011;57723;51.698;5.344;2023-01-09T09:27:30;3.90;;;1.03;;
70312;SDS011;57723;51.698;5.344;2023-01-09T09:29:55;3.63;;;0.77;;
70312;SDS011;57723;51.698;5.344;2023-01-09T09:32:20;3.30;;;0.80;;
70312;SDS011;57723;51.698;5.344;2023-01-09T09:34:46;2.65;;;0.73;;
70312;SDS011;57723;51.698;5.344;2023-01-09T09:37:11;5.33;;;0.70;;
70312;SDS011;57723;51.698;5.344;2023-01-09T09:39:36;4.23;;;0.87;;
70312;SDS011;57723;51.698;5.344;2023-01-09T09:52:29;3.75;;;0.80;;
70312;SDS011;57723;51.698;5.344;2023-01-09T09:55:00;3.70;;;0.70;;
70312;SDS011;57723;51.698;5.344;2023-01-09T09:57:30;3.03;;;0.60;;
70312;SDS011;57723;51.698;5.344;2023-01-09T09:59:56;2.45;;;0.70;;
70312;SDS011;57723;51.698;5.344;2023-01-09T10:02:23;3.97;;;0.60;;
70312;SDS011;57723;51.698;5.344;2023-01-09T10:04:50;5.07;;;0.73;;
70312;SDS011;57723;51.698;5.344;2023-01-09T10:07:20;2.33;;;0.70;;
70312;SDS011;57723;51.698;5.344;2023-01-09T10:09:56;3.58;;;0.70;;
70312;SDS011;57723;51.698;5.344;2023-01-09T10:14:53;1.67;;;0.80;;
70312;SDS011;57723;51.698;5.344;2023-01-09T10:17:33;3.15;;;0.98;;
70312;SDS011;57723;51.698;5.344;2023-01-09T10:22:56;2.42;;;0.80;;
70312;SDS011;57723;51.698;5.344;2023-01-09T10:25:30;4.57;;;0.88;;
70312;SDS011;57723;51.698;5.344;2023-01-09T10:30:58;2.67;;;0.80;;
70312;SDS011;57723;51.698;5.344;2023-01-09T10:36:11;2.28;;;0.65;;
70312;SDS011;57723;51.698;5.344;2023-01-09T10:38:46;1.15;;;0.70;;
70312;SDS011;57723;51.698;5.344;2023-01-09T10:41:13;2.10;;;0.80;;
70312;SDS011;57723;51.698;5.344;2023-01-09T10:44:01;1.85;;;0.90;;
70312;SDS011;57723;51.698;5.344;2023-01-09T10:46:40;1.38;;;0.60;;
70312;SDS011;57723;51.698;5.344;2023-01-09T10:49:10;1.70;;;0.88;;
70312;SDS011;57723;51.698;5.344;2023-01-09T10:51:38;5.03;;;0.95;;
70312;SDS011;57723;51.698;5.344;2023-01-09T10:54:06;2.25;;;0.70;;
70312;SDS011;57723;51.698;5.344;2023-01-09T10:56:36;1.00;;;0.60;;
70312;SDS011;57723;51.698;5.344;2023-01-09T10:59:03;1.10;;;0.60;;
70312;SDS011;57723;51.698;5.344;2023-01-09T11:01:32;2.33;;;0.63;;
70312;SDS011;57723;51.698;5.344;2023-01-09T11:03:58;5.63;;;1.25;;
70312;SDS011;57723;51.698;5.344;2023-01-09T11:06:30;2.45;;;0.90;;
70312;SDS011;57723;51.698;5.344;2023-01-09T11:08:56;1.27;;;0.70;;
70312;SDS011;57723;51.698;5.344;2023-01-09T11:11:36;1.60;;;0.60;;
70312;SDS011;57723;51.698;5.344;2023-01-09T11:14:03;2.47;;;0.70;;
70312;SDS011;57723;51.698;5.344;2023-01-09T11:16:28;3.33;;;0.70;;
70312;SDS011;57723;51.698;5.344;2023-01-09T11:18:57;1.30;;;0.60;;
70312;SDS011;57723;51.698;5.344;2023-01-09T11:23:51;3.27;;;0.60;;
70312;SDS011;57723;51.698;5.344;2023-01-09T11:26:26;1.52;;;0.60;;
70312;SDS011;57723;51.698;5.344;2023-01-09T11:29:11;1.20;;;0.70;;
70312;SDS011;57723;51.698;5.344;2023-01-09T11:31:37;1.75;;;0.68;;
70312;SDS011;57723;51.698;5.344;2023-01-09T11:34:03;1.50;;;0.80;;
70312;SDS011;57723;51.698;5.344;2023-01-09T11:38:56;3.45;;;0.85;;
70312;SDS011;57723;51.698;5.344;2023-01-09T11:41:31;3.05;;;0.73;;
70312;SDS011;57723;51.698;5.344;2023-01-09T11:43:58;1.65;;;0.70;;
70312;SDS011;57723;51.698;5.344;2023-01-09T11:48:55;2.25;;;0.68;;
70312;SDS011;57723;51.698;5.344;2023-01-09T11:51:22;1.02;;;0.70;;
70312;SDS011;57723;51.698;5.344;2023-01-09T11:56:16;1.55;;;0.80;;
70312;SDS011;57723;51.698;5.344;2023-01-09T11:58:41;1.08;;;0.70;;
70312;SDS011;57723;51.698;5.344;2023-01-09T12:11:23;1.92;;;0.65;;
70312;SDS011;57723;51.698;5.344;2023-01-09T12:21:22;3.70;;;0.60;;
70312;SDS011;57723;51.698;5.344;2023-01-09T12:31:51;4.63;;;0.70;;
70312;SDS011;57723;51.698;5.344;2023-01-09T12:37:20;3.30;;;0.70;;
70312;SDS011;57723;51.698;5.344;2023-01-09T12:40:02;0.85;;;0.60;;
70312;SDS011;57723;51.698;5.344;2023-01-09T12:43:06;3.15;;;0.93;;
70312;SDS011;57723;51.698;5.344;2023-01-09T12:45:33;1.10;;;0.73;;
70312;SDS011;57723;51.698;5.344;2023-01-09T12:48:11;1.50;;;0.77;;
70312;SDS011;57723;51.698;5.344;2023-01-09T12:51:04;1.75;;;0.80;;
70312;SDS011;57723;51.698;5.344;2023-01-09T12:53:28;2.58;;;0.60;;
70312;SDS011;57723;51.698;5.344;2023-01-09T12:58:31;1.10;;;0.50;;
70312;SDS011;57723;51.698;5.344;2023-01-09T13:00:59;1.60;;;0.70;;
70312;SDS011;57723;51.698;5.344;2023-01-09T13:03:27;3.85;;;0.88;;
70312;SDS011;57723;51.698;5.344;2023-01-09T13:05:56;1.70;;;0.80;;
70312;SDS011;57723;51.698;5.344;2023-01-09T13:08:29;2.40;;;0.90;;
70312;SDS011;57723;51.698;5.344;2023-01-09T13:10:56;3.55;;;0.85;;
70312;SDS011;57723;51.698;5.344;2023-01-09T13:14:00;1.35;;;0.68;;
70312;SDS011;57723;51.698;5.344;2023-01-09T13:16:21;1.73;;;0.93;;
70312;SDS011;57723;51.698;5.344;2023-01-09T13:18:53;4.00;;;0.80;;
70312;SDS011;57723;51.698;5.344;2023-01-09T13:21:20;1.73;;;1.00;;
70312;SDS011;57723;51.698;5.344;2023-01-09T13:26:30;2.17;;;0.70;;
70312;SDS011;57723;51.698;5.344;2023-01-09T13:28:59;1.73;;;0.83;;
70312;SDS011;57723;51.698;5.344;2023-01-09T13:34:13;1.27;;;0.80;;
70312;SDS011;57723;51.698;5.344;2023-01-09T13:36:44;1.58;;;0.70;;
70312;SDS011;57723;51.698;5.344;2023-01-09T13:39:15;1.27;;;0.77;;
70312;SDS011;57723;51.698;5.344;2023-01-09T13:41:45;1.73;;;0.70;;
70312;SDS011;57723;51.698;5.344;2023-01-09T13:44:29;1.42;;;0.68;;
70312;SDS011;57723;51.698;5.344;2023-01-09T13:46:55;1.73;;;0.87;;
70312;SDS011;57723;51.698;5.344;2023-01-09T13:50:04;1.25;;;0.77;;
70312;SDS011;57723;51.698;5.344;2023-01-09T13:59:53;2.55;;;1.15;;
70312;SDS011;57723;51.698;5.344;2023-01-09T14:05:00;1.45;;;0.70;;
70312;SDS011;57723;51.698;5.344;2023-01-09T14:07:31;1.47;;;0.70;;
70312;SDS011;57723;51.698;5.344;2023-01-09T14:09:58;1.55;;;0.70;;
70312;SDS011;57723;51.698;5.344;2023-01-09T14:12:24;1.52;;;0.70;;
70312;SDS011;57723;51.698;5.344;2023-01-09T14:14:50;5.35;;;1.00;;
70312;SDS011;57723;51.698;5.344;2023-01-09T14:17:16;1.15;;;1.00;;
70312;SDS011;57723;51.698;5.344;2023-01-09T14:19:43;2.10;;;0.70;;
70312;SDS011;57723;51.698;5.344;2023-01-09T14:22:22;3.00;;;0.80;;
70312;SDS011;57723;51.698;5.344;2023-01-09T14:24:48;2.03;;;0.80;;
70312;SDS011;57723;51.698;5.344;2023-01-09T14:30:23;2.75;;;0.70;;
70312;SDS011;57723;51.698;5.344;2023-01-09T14:32:59;3.87;;;1.00;;
70312;SDS011;57723;51.698;5.344;2023-01-09T14:35:46;1.65;;;0.82;;
70312;SDS011;57723;51.698;5.344;2023-01-09T14:38:16;3.65;;;0.90;;
70312;SDS011;57723;51.698;5.344;2023-01-09T14:40:47;3.20;;;0.82;;
70312;SDS011;57723;51.698;5.344;2023-01-09T14:43:37;2.15;;;1.00;;
70312;SDS011;57723;51.698;5.344;2023-01-09T14:46:07;3.37;;;0.83;;
70312;SDS011;57723;51.698;5.344;2023-01-09T14:48:34;1.75;;;0.75;;
70312;SDS011;57723;51.698;5.344;2023-01-09T14:50:59;2.23;;;0.83;;
70312;SDS011;57723;51.698;5.344;2023-01-09T14:53:30;5.93;;;0.90;;
70312;SDS011;57723;51.698;5.344;2023-01-09T14:55:56;3.22;;;0.80;;
70312;SDS011;57723;51.698;5.344;2023-01-09T14:58:29;4.80;;;0.90;;
70312;SDS011;57723;51.698;5.344;2023-01-09T15:01:04;5.30;;;0.95;;
70312;SDS011;57723;51.698;5.344;2023-01-09T15:03:50;3.13;;;0.70;;
70312;SDS011;57723;51.698;5.344;2023-01-09T15:06:20;2.90;;;0.90;;
70312;SDS011;57723;51.698;5.344;2023-01-09T15:08:45;2.20;;;0.75;;
70312;SDS011;57723;51.698;5.344;2023-01-09T15:11:13;2.30;;;0.60;;
70312;SDS011;57723;51.698;5.344;2023-01-09T15:13:43;1.23;;;0.60;;
70312;SDS011;57723;51.698;5.344;2023-01-09T15:16:18;5.60;;;0.77;;
70312;SDS011;57723;51.698;5.344;2023-01-09T15:18:45;3.60;;;0.60;;
70312;SDS011;57723;51.698;5.344;2023-01-09T15:21:14;2.60;;;0.80;;
70312;SDS011;57723;51.698;5.344;2023-01-09T15:23:41;1.50;;;0.80;;
70312;SDS011;57723;51.698;5.344;2023-01-09T15:28:41;4.60;;;0.77;;
70312;SDS011;57723;51.698;5.344;2023-01-09T15:31:12;2.08;;;0.85;;
70312;SDS011;57723;51.698;5.344;2023-01-09T15:33:38;2.50;;;0.70;;
70312;SDS011;57723;51.698;5.344;2023-01-09T15:36:06;0.75;;;0.60;;
70312;SDS011;57723;51.698;5.344;2023-01-09T15:38:34;3.65;;;0.90;;
70312;SDS011;57723;51.698;5.344;2023-01-09T15:41:02;1.40;;;0.60;;
70312;SDS011;57723;51.698;5.344;2023-01-09T15:43:28;1.00;;;0.60;;
70312;SDS011;57723;51.698;5.344;2023-01-09T15:45:54;1.77;;;0.70;;
70312;SDS011;57723;51.698;5.344;2023-01-09T15:50:45;2.45;;;0.60;;
70312;SDS011;57723;51.698;5.344;2023-01-09T15:53:15;3.00;;;0.68;;
70312;SDS011;57723;51.698;5.344;2023-01-09T15:55:40;1.33;;;0.65;;
70312;SDS011;57723;51.698;5.344;2023-01-09T16:00:57;2.67;;;0.77;;
70312;SDS011;57723;51.698;5.344;2023-01-09T16:03:24;1.75;;;0.70;;
70312;SDS011;57723;51.698;5.344;2023-01-09T16:05:59;2.40;;;0.60;;
70312;SDS011;57723;51.698;5.344;2023-01-09T16:08:30;1.73;;;0.68;;
70312;SDS011;57723;51.698;5.344;2023-01-09T16:10:57;1.58;;;0.70;;
70312;SDS011;57723;51.698;5.344;2023-01-09T16:13:24;1.63;;;0.60;;
70312;SDS011;57723;51.698;5.344;2023-01-09T16:15:50;2.55;;;0.73;;
70312;SDS011;57723;51.698;5.344;2023-01-09T16:18:19;1.25;;;0.60;;
70312;SDS011;57723;51.698;5.344;2023-01-09T16:20:45;0.95;;;0.60;;
70312;SDS011;57723;51.698;5.344;2023-01-09T16:23:21;1.90;;;0.80;;
70312;SDS011;57723;51.698;5.344;2023-01-09T16:25:46;0.87;;;0.53;;
70312;SDS011;57723;51.698;5.344;2023-01-09T16:28:19;0.90;;;0.55;;
70312;SDS011;57723;51.698;5.344;2023-01-09T16:30:51;1.42;;;0.60;;
70312;SDS011;57723;51.698;5.344;2023-01-09T16:33:18;1.63;;;0.70;;
70312;SDS011;57723;51.698;5.344;2023-01-09T16:35:44;2.00;;;0.90;;
70312;SDS011;57723;51.698;5.344;2023-01-09T16:38:11;2.17;;;1.00;;
70312;SDS011;57723;51.698;5.344;2023-01-09T16:40:37;1.02;;;0.60;;
70312;SDS011;57723;51.698;5.344;2023-01-09T16:43:03;3.13;;;0.87;;
70312;SDS011;57723;51.698;5.344;2023-01-09T16:45:30;2.13;;;0.60;;
70312;SDS011;57723;51.698;5.344;2023-01-09T16:47:56;0.93;;;0.50;;
70312;SDS011;57723;51.698;5.344;2023-01-09T16:50:22;2.65;;;0.80;;
70312;SDS011;57723;51.698;5.344;2023-01-09T16:52:48;2.20;;;0.60;;
70312;SDS011;57723;51.698;5.344;2023-01-09T16:55:13;1.10;;;0.60;;